Time;durP1;ratioP1;P1;durP2;ratioP2;P2;SDS_P1;SDS_P2;PMS_P1;PMS_P2;Temp;Humidity;BMP_temperature;BMP_pressure;BME280_temperature;BME280_humidity;BME280_pressure;Samples;Min_cycle;Max_cycle;Signal;HPM_P1;HPM_P2
2023/12/27 00:00:03;;;;;;;26.60;13.70;;;5.30;99.90;;;;;;4949963;28;20174;-75
2023/12/27 00:02:29;;;;;;;30.70;13.60;;;5.30;99.90;;;;;;4944029;29;20020;-75
2023/12/27 00:04:54;;;;;;;33.97;13.35;;;5.30;99.90;;;;;;4949797;28;20031;-75
2023/12/27 00:07:20;;;;;;;27.08;13.23;;;5.30;99.90;;;;;;4949849;28;20074;-75
2023/12/27 00:09:46;;;;;;;28.67;12.93;;;5.30;99.90;;;;;;4949383;28;20085;-74
2023/12/27 00:12:13;;;;;;;30.73;13.38;;;5.30;99.90;;;;;;4948645;28;20264;-75
2023/12/27 00:14:39;;;;;;;32.13;12.85;;;5.30;99.90;;;;;;4950609;29;20379;-75
2023/12/27 00:17:05;;;;;;;28.52;13.30;;;5.30;99.90;;;;;;4950495;29;20054;-75
2023/12/27 00:19:30;;;;;;;28.65;12.13;;;5.30;99.90;;;;;;5016509;28;20384;-75
2023/12/27 00:21:56;;;;;;;29.92;12.63;;;5.30;99.90;;;;;;4939142;29;20056;-75
2023/12/27 00:24:21;;;;;;;29.05;12.85;;;5.30;99.90;;;;;;4949267;28;20080;-75
2023/12/27 00:26:47;;;;;;;26.75;12.80;;;5.30;99.90;;;;;;4950337;29;20695;-75
2023/12/27 00:29:12;;;;;;;35.63;13.15;;;5.30;99.90;;;;;;4950300;28;20058;-75
2023/12/27 00:31:38;;;;;;;27.58;13.07;;;5.30;99.90;;;;;;4950015;28;20090;-75
2023/12/27 00:34:03;;;;;;;28.67;12.52;;;5.30;99.90;;;;;;4950301;29;20089;-75
2023/12/27 00:36:29;;;;;;;31.77;12.45;;;5.30;99.90;;;;;;5021372;28;20113;-75
2023/12/27 00:38:56;;;;;;;32.55;13.32;;;5.30;99.90;;;;;;4950054;28;20035;-75
2023/12/27 00:41:22;;;;;;;24.58;11.80;;;5.30;99.90;;;;;;5027417;28;20027;-74
2023/12/27 00:43:47;;;;;;;31.48;13.10;;;5.30;99.90;;;;;;4944530;29;20487;-75
2023/12/27 00:46:13;;;;;;;25.75;12.27;;;5.30;99.90;;;;;;4947263;28;20539;-75
2023/12/27 00:48:38;;;;;;;27.25;12.70;;;5.30;99.90;;;;;;4944824;28;20064;-75
2023/12/27 00:51:05;;;;;;;30.00;12.38;;;5.30;99.90;;;;;;4945983;28;20109;-75
2023/12/27 00:53:30;;;;;;;31.88;12.90;;;5.20;99.90;;;;;;4949556;28;20558;-75
2023/12/27 00:55:56;;;;;;;25.40;12.23;;;5.20;99.90;;;;;;4950195;28;20015;-75
2023/12/27 00:58:22;;;;;;;28.13;12.63;;;5.20;99.90;;;;;;4949539;28;20110;-75
2023/12/27 01:00:48;;;;;;;26.90;12.70;;;5.30;99.90;;;;;;4949994;29;20099;-75
2023/12/27 01:03:13;;;;;;;26.42;12.23;;;5.30;99.90;;;;;;4949239;28;20024;-75
2023/12/27 01:05:39;;;;;;;26.92;12.02;;;5.30;99.90;;;;;;4945461;28;20032;-75
2023/12/27 01:08:05;;;;;;;25.60;12.45;;;5.30;99.90;;;;;;4947477;28;20024;-75
2023/12/27 01:10:30;;;;;;;26.55;12.30;;;5.30;99.90;;;;;;4949753;28;20487;-75
2023/12/27 01:12:56;;;;;;;27.65;13.07;;;5.30;99.90;;;;;;4949514;28;20119;-75
2023/12/27 01:15:22;;;;;;;31.77;11.80;;;5.30;99.90;;;;;;5015483;28;20539;-75
2023/12/27 01:17:48;;;;;;;24.95;11.63;;;5.30;99.90;;;;;;4949771;28;20106;-76
2023/12/27 01:20:14;;;;;;;36.35;12.32;;;5.40;99.90;;;;;;4949296;29;20031;-75
2023/12/27 01:22:39;;;;;;;25.65;11.60;;;5.40;99.90;;;;;;4949300;28;20070;-75
2023/12/27 01:25:05;;;;;;;30.65;12.07;;;5.40;99.90;;;;;;4948828;29;20043;-76
2023/12/27 01:27:31;;;;;;;23.33;11.25;;;5.40;99.90;;;;;;4949331;28;20019;-75
2023/12/27 01:29:56;;;;;;;23.25;10.85;;;5.40;99.90;;;;;;4949108;28;20158;-75
2023/12/27 01:32:22;;;;;;;24.98;11.55;;;5.30;99.90;;;;;;4949193;29;20484;-75
2023/12/27 01:34:47;;;;;;;26.88;12.27;;;5.30;99.90;;;;;;4938394;28;20023;-75
2023/12/27 01:37:13;;;;;;;27.75;12.27;;;5.30;99.90;;;;;;4941627;28;20512;-75
2023/12/27 01:39:39;;;;;;;31.42;11.90;;;5.40;99.90;;;;;;4949209;28;20020;-75
2023/12/27 01:42:04;;;;;;;27.05;11.43;;;5.30;99.90;;;;;;4944935;28;20027;-75
2023/12/27 01:44:30;;;;;;;24.10;12.25;;;5.30;99.90;;;;;;4947605;28;20035;-75
2023/12/27 01:46:56;;;;;;;29.75;11.90;;;5.30;99.90;;;;;;4937686;28;20073;-75
2023/12/27 01:49:22;;;;;;;26.65;11.98;;;5.30;99.90;;;;;;4939245;28;20740;-75
2023/12/27 01:51:47;;;;;;;25.50;12.40;;;5.30;99.90;;;;;;4945247;28;20031;-75
2023/12/27 01:54:14;;;;;;;30.08;11.82;;;5.30;99.90;;;;;;4949019;29;20038;-75
2023/12/27 01:56:43;;;;;;;30.75;12.57;;;5.30;99.90;;;;;;4945455;28;20307;-75
2023/12/27 01:59:09;;;;;;;25.73;11.63;;;5.40;99.90;;;;;;4936721;28;20546;-75
2023/12/27 02:01:35;;;;;;;32.55;12.65;;;5.40;99.90;;;;;;4948547;28;20348;-75
2023/12/27 02:04:01;;;;;;;30.15;11.90;;;5.40;99.90;;;;;;4948800;28;20031;-75
2023/12/27 02:06:27;;;;;;;24.98;12.20;;;5.40;99.90;;;;;;5015289;28;20031;-75
2023/12/27 02:08:53;;;;;;;26.30;12.88;;;5.40;99.90;;;;;;4948739;28;20104;-75
2023/12/27 02:11:18;;;;;;;32.28;12.93;;;5.50;99.90;;;;;;4948529;28;20111;-75
2023/12/27 02:13:44;;;;;;;33.25;12.77;;;5.50;99.90;;;;;;4948958;28;20166;-75
2023/12/27 02:16:10;;;;;;;33.47;12.60;;;5.50;99.90;;;;;;4950958;28;20479;-75
2023/12/27 02:18:36;;;;;;;32.80;13.00;;;5.50;99.90;;;;;;4948909;28;20054;-75
2023/12/27 02:21:02;;;;;;;28.90;12.68;;;5.60;99.90;;;;;;4948444;28;20031;-75
2023/12/27 02:23:29;;;;;;;31.90;13.30;;;5.50;99.90;;;;;;4947506;29;20015;-75
2023/12/27 02:25:56;;;;;;;35.28;12.85;;;5.60;99.90;;;;;;4947689;28;20024;-75
2023/12/27 02:28:21;;;;;;;31.10;13.38;;;5.60;99.90;;;;;;4948784;29;20019;-75
2023/12/27 02:30:47;;;;;;;28.17;13.15;;;5.60;99.90;;;;;;4948897;28;20026;-75
2023/12/27 02:33:12;;;;;;;32.35;13.82;;;5.60;99.90;;;;;;4950696;28;20451;-75
2023/12/27 02:35:38;;;;;;;30.30;12.90;;;5.60;99.90;;;;;;4951687;28;20027;-75
2023/12/27 02:38:03;;;;;;;29.02;12.73;;;5.60;99.90;;;;;;4951841;28;20043;-75
2023/12/27 02:40:29;;;;;;;32.20;13.30;;;5.60;99.90;;;;;;4952695;28;20077;-75
2023/12/27 02:42:55;;;;;;;31.05;13.38;;;5.70;99.90;;;;;;4951497;28;20703;-75
2023/12/27 02:45:20;;;;;;;29.13;12.57;;;5.70;99.90;;;;;;4942483;28;20038;-75
2023/12/27 02:47:46;;;;;;;34.10;13.43;;;5.70;99.90;;;;;;4959264;28;20429;-75
2023/12/27 02:50:11;;;;;;;34.17;14.07;;;5.70;99.90;;;;;;4951617;28;20484;-75
2023/12/27 02:52:37;;;;;;;27.75;13.32;;;5.70;99.90;;;;;;4951042;29;20157;-75
2023/12/27 02:55:03;;;;;;;30.73;12.68;;;5.70;99.90;;;;;;4950349;29;20084;-75
2023/12/27 02:57:28;;;;;;;27.40;12.63;;;5.70;99.90;;;;;;4952097;28;20463;-75
2023/12/27 02:59:54;;;;;;;32.15;12.82;;;5.70;99.90;;;;;;4950840;28;20015;-75
2023/12/27 03:02:20;;;;;;;29.80;13.57;;;5.70;99.90;;;;;;4951880;28;20038;-75
2023/12/27 03:04:45;;;;;;;32.22;13.63;;;5.80;99.90;;;;;;4951013;28;20055;-75
2023/12/27 03:07:11;;;;;;;36.63;13.13;;;5.80;99.90;;;;;;4951684;28;20038;-75
2023/12/27 03:09:37;;;;;;;31.00;12.88;;;5.80;99.90;;;;;;4951198;28;20606;-75
2023/12/27 03:12:03;;;;;;;32.95;13.43;;;5.90;99.90;;;;;;4951162;28;20383;-75
2023/12/27 03:14:28;;;;;;;40.92;15.35;;;5.80;99.90;;;;;;5017480;28;20023;-75
2023/12/27 03:16:54;;;;;;;29.27;14.25;;;5.90;99.90;;;;;;4951034;28;20046;-75
2023/12/27 03:19:19;;;;;;;34.40;13.90;;;5.90;99.90;;;;;;4951837;28;20027;-75
2023/12/27 03:21:45;;;;;;;35.90;16.13;;;5.90;99.90;;;;;;4943213;28;20463;-75
2023/12/27 03:24:10;;;;;;;33.30;15.43;;;5.90;99.90;;;;;;4951388;29;20067;-75
2023/12/27 03:26:36;;;;;;;34.47;16.27;;;5.90;99.90;;;;;;4950758;28;20030;-75
2023/12/27 03:29:02;;;;;;;34.67;15.93;;;5.90;99.90;;;;;;4950863;28;20057;-75
2023/12/27 03:31:28;;;;;;;37.55;14.70;;;5.90;99.90;;;;;;4951643;28;20026;-75
2023/12/27 03:33:58;;;;;;;38.30;15.95;;;5.90;99.90;;;;;;4951476;28;20480;-75
2023/12/27 03:36:24;;;;;;;35.53;16.77;;;5.90;99.90;;;;;;4950453;28;20025;-75
2023/12/27 03:38:50;;;;;;;35.08;17.25;;;6.00;99.90;;;;;;4951391;28;20020;-75
2023/12/27 03:41:16;;;;;;;35.40;15.95;;;6.00;99.90;;;;;;4950670;28;20038;-75
2023/12/27 03:43:41;;;;;;;30.50;14.90;;;6.00;99.90;;;;;;4949230;28;20104;-75
2023/12/27 03:46:07;;;;;;;29.58;15.10;;;6.00;99.90;;;;;;4950820;29;20506;-75
2023/12/27 03:48:33;;;;;;;36.80;15.15;;;6.00;99.90;;;;;;4950775;28;20027;-75
2023/12/27 03:50:58;;;;;;;34.30;15.85;;;6.00;99.90;;;;;;4950656;29;20023;-75
2023/12/27 03:53:24;;;;;;;34.15;15.45;;;6.00;99.90;;;;;;4948984;28;20419;-75
2023/12/27 03:55:49;;;;;;;29.25;14.48;;;6.10;99.90;;;;;;4950834;28;20027;-75
2023/12/27 03:58:15;;;;;;;36.88;16.10;;;6.10;99.90;;;;;;4950510;28;20031;-75
2023/12/27 04:00:40;;;;;;;36.38;15.95;;;6.10;99.90;;;;;;4950400;29;20028;-75
2023/12/27 04:03:06;;;;;;;35.03;15.57;;;6.00;99.90;;;;;;4949334;28;20047;-75
2023/12/27 04:05:32;;;;;;;38.45;16.45;;;6.10;99.90;;;;;;4939158;28;20313;-75
2023/12/27 04:07:57;;;;;;;36.50;15.85;;;6.10;99.90;;;;;;4950712;28;20036;-75
2023/12/27 04:10:25;;;;;;;37.10;15.65;;;6.10;99.90;;;;;;4940075;28;20299;-75
2023/12/27 04:12:51;;;;;;;37.80;15.77;;;6.10;99.90;;;;;;4950507;28;20023;-75
2023/12/27 04:15:17;;;;;;;32.78;15.02;;;6.10;99.90;;;;;;4950035;29;20160;-75
2023/12/27 04:17:42;;;;;;;38.25;14.90;;;6.10;99.90;;;;;;4964265;28;20028;-75
2023/12/27 04:20:08;;;;;;;41.92;15.85;;;6.10;99.90;;;;;;4948119;28;20019;-75
2023/12/27 04:22:34;;;;;;;33.38;15.52;;;6.10;99.90;;;;;;4950577;29;20019;-75
2023/12/27 04:24:59;;;;;;;32.33;15.45;;;6.10;99.90;;;;;;4949249;29;20090;-75
2023/12/27 04:27:25;;;;;;;38.47;16.42;;;6.20;99.90;;;;;;4950287;28;20023;-75
2023/12/27 04:29:51;;;;;;;35.83;15.70;;;6.20;99.90;;;;;;4949388;29;20027;-75
2023/12/27 04:32:16;;;;;;;36.67;15.65;;;6.20;99.90;;;;;;4948542;28;20026;-75
2023/12/27 04:34:42;;;;;;;33.55;14.63;;;6.20;99.90;;;;;;4949984;28;20031;-75
2023/12/27 04:37:07;;;;;;;34.03;13.82;;;6.20;99.90;;;;;;4941196;29;20027;-75
2023/12/27 04:39:33;;;;;;;32.65;14.43;;;6.20;99.90;;;;;;4950349;28;20019;-75
2023/12/27 04:41:59;;;;;;;37.92;14.27;;;6.20;99.90;;;;;;4950585;28;20042;-75
2023/12/27 04:44:24;;;;;;;29.90;13.75;;;6.20;99.90;;;;;;4950167;28;20026;-75
2023/12/27 04:46:50;;;;;;;27.33;12.95;;;6.20;99.90;;;;;;4950086;28;20070;-74
2023/12/27 04:49:16;;;;;;;34.30;13.50;;;6.20;99.90;;;;;;4948825;29;20020;-75
2023/12/27 04:51:42;;;;;;;31.17;13.18;;;6.20;99.90;;;;;;4948052;28;20050;-75
2023/12/27 04:54:07;;;;;;;34.15;14.10;;;6.20;99.90;;;;;;4950279;28;20027;-75
2023/12/27 04:56:33;;;;;;;32.65;12.65;;;6.30;99.90;;;;;;4949071;28;20390;-75
2023/12/27 04:58:58;;;;;;;28.58;13.05;;;6.30;99.90;;;;;;4950250;29;20027;-75
2023/12/27 05:01:24;;;;;;;31.42;12.27;;;6.30;99.90;;;;;;4949673;29;20023;-75
2023/12/27 05:03:50;;;;;;;30.80;12.15;;;6.30;99.90;;;;;;4949895;29;20027;-75
2023/12/27 05:06:16;;;;;;;33.22;11.77;;;6.30;99.90;;;;;;4938573;28;20027;-75
2023/12/27 05:08:42;;;;;;;28.40;11.73;;;6.30;99.90;;;;;;4949863;29;20015;-75
2023/12/27 05:11:18;;;;;;;30.85;12.00;;;6.30;99.90;;;;;;4949650;28;20019;-75
2023/12/27 05:13:44;;;;;;;25.25;11.95;;;6.40;99.90;;;;;;4950117;29;20521;-75
2023/12/27 05:16:14;;;;;;;34.13;12.30;;;6.30;99.90;;;;;;4949361;28;20130;-74
2023/12/27 05:18:41;;;;;;;28.75;11.82;;;6.40;99.90;;;;;;4949447;29;20023;-75
2023/12/27 05:21:08;;;;;;;29.23;11.95;;;6.40;99.90;;;;;;4949229;28;20027;-74
2023/12/27 05:23:34;;;;;;;26.38;11.25;;;6.40;99.90;;;;;;4949520;29;20027;-74
2023/12/27 05:25:59;;;;;;;30.13;11.65;;;6.40;99.90;;;;;;4949646;28;20050;-74
2023/12/27 05:28:25;;;;;;;29.75;11.95;;;6.40;99.90;;;;;;4949598;29;20031;-74
2023/12/27 05:30:51;;;;;;;37.05;12.15;;;6.40;99.90;;;;;;4949243;28;20433;-74
2023/12/27 05:33:16;;;;;;;33.22;11.88;;;6.40;99.90;;;;;;4949682;28;20027;-75
2023/12/27 05:35:42;;;;;;;31.27;11.80;;;6.40;99.90;;;;;;4950555;28;20042;-75
2023/12/27 05:38:07;;;;;;;26.85;10.95;;;6.40;99.90;;;;;;4949295;28;20538;-75
2023/12/27 05:40:33;;;;;;;33.85;10.93;;;6.40;99.90;;;;;;4948122;28;20023;-75
2023/12/27 05:42:58;;;;;;;31.35;12.18;;;6.40;99.90;;;;;;4949146;28;20015;-75
2023/12/27 05:45:24;;;;;;;27.92;11.57;;;6.50;99.90;;;;;;4948591;28;20027;-75
2023/12/27 05:47:51;;;;;;;26.58;10.82;;;6.50;99.90;;;;;;4948769;28;20031;-75
2023/12/27 05:50:17;;;;;;;28.33;11.85;;;6.50;99.90;;;;;;4949199;28;20038;-75
2023/12/27 05:52:42;;;;;;;29.27;11.48;;;6.50;99.90;;;;;;4936434;28;20024;-75
2023/12/27 05:55:08;;;;;;;25.67;11.20;;;6.50;99.90;;;;;;5010854;28;20139;-75
2023/12/27 05:57:33;;;;;;;32.70;11.18;;;6.50;99.90;;;;;;4948755;28;20023;-72
2023/12/27 05:59:59;;;;;;;29.02;10.77;;;6.50;99.90;;;;;;4947711;28;20027;-73
2023/12/27 06:02:25;;;;;;;32.50;11.13;;;6.50;99.90;;;;;;4947529;28;20049;-73
2023/12/27 06:04:50;;;;;;;34.22;10.52;;;6.50;99.90;;;;;;4947421;28;20043;-74
2023/12/27 06:07:16;;;;;;;31.00;10.82;;;6.50;99.90;;;;;;4949326;28;20642;-74
2023/12/27 06:09:42;;;;;;;30.35;10.07;;;6.50;99.90;;;;;;4950976;28;20559;-74
2023/12/27 06:12:08;;;;;;;26.85;10.45;;;6.60;99.90;;;;;;4950157;28;20039;-74
2023/12/27 06:14:34;;;;;;;26.73;10.90;;;6.60;99.90;;;;;;4945944;28;20434;-74
2023/12/27 06:17:01;;;;;;;30.50;9.73;;;6.60;99.90;;;;;;4952232;28;20048;-74
2023/12/27 06:19:27;;;;;;;26.98;11.52;;;6.60;99.90;;;;;;4948716;28;20468;-74
2023/12/27 06:21:53;;;;;;;27.10;10.48;;;6.60;99.90;;;;;;4950762;28;20031;-74
2023/12/27 06:24:19;;;;;;;36.40;10.68;;;6.60;99.90;;;;;;5033818;28;20027;-74
2023/12/27 06:26:44;;;;;;;34.15;11.27;;;6.60;99.90;;;;;;4950483;29;20486;-74
2023/12/27 06:29:10;;;;;;;25.60;10.25;;;6.60;99.90;;;;;;4949087;29;20500;-75
2023/12/27 06:31:35;;;;;;;28.10;10.20;;;6.60;99.90;;;;;;4950184;29;20019;-74
2023/12/27 06:34:01;;;;;;;25.02;10.05;;;6.60;99.90;;;;;;4949588;28;20032;-74
2023/12/27 06:36:27;;;;;;;26.35;10.52;;;6.60;99.90;;;;;;4949994;29;20381;-74
2023/12/27 06:38:53;;;;;;;26.80;10.90;;;6.60;99.90;;;;;;4950465;28;20110;-74
2023/12/27 06:41:18;;;;;;;31.58;10.35;;;6.60;99.90;;;;;;4962587;28;20019;-74
2023/12/27 06:43:44;;;;;;;38.78;11.40;;;6.70;99.90;;;;;;4972082;28;20011;-74
2023/12/27 06:46:10;;;;;;;28.25;10.60;;;6.70;99.90;;;;;;4951932;29;20027;-74
2023/12/27 06:48:36;;;;;;;23.83;10.48;;;6.70;99.90;;;;;;4951878;29;20024;-74
2023/12/27 06:51:03;;;;;;;24.02;9.65;;;6.70;99.90;;;;;;4952009;29;20042;-74
2023/12/27 06:53:29;;;;;;;28.52;10.88;;;6.70;99.90;;;;;;4952032;28;20086;-74
2023/12/27 06:55:55;;;;;;;26.33;10.32;;;6.70;99.90;;;;;;4952423;28;20484;-75
2023/12/27 06:58:21;;;;;;;31.33;10.07;;;6.80;99.90;;;;;;4996574;28;20090;-74
2023/12/27 07:00:46;;;;;;;28.77;11.30;;;6.80;99.90;;;;;;4951708;28;20154;-75
2023/12/27 07:03:13;;;;;;;32.83;10.15;;;6.80;99.90;;;;;;4951388;29;20085;-74
2023/12/27 07:05:39;;;;;;;29.40;11.02;;;6.80;99.90;;;;;;4951897;28;20035;-73
2023/12/27 07:08:05;;;;;;;24.00;10.10;;;6.80;99.90;;;;;;4951532;28;20106;-74
2023/12/27 07:10:31;;;;;;;26.45;10.70;;;6.80;99.90;;;;;;4950595;28;20024;-74
2023/12/27 07:12:57;;;;;;;24.90;9.93;;;6.80;99.90;;;;;;4963202;28;20862;-74
2023/12/27 07:15:23;;;;;;;21.88;10.00;;;6.90;99.90;;;;;;4950853;28;20117;-73
2023/12/27 07:17:49;;;;;;;26.33;10.38;;;6.90;99.90;;;;;;4949458;28;20036;-74
2023/12/27 07:20:14;;;;;;;22.13;9.82;;;6.90;99.90;;;;;;4951219;28;20038;-73
2023/12/27 07:22:40;;;;;;;21.27;10.07;;;6.90;99.90;;;;;;4950963;28;20034;-73
2023/12/27 07:25:06;;;;;;;19.77;9.65;;;6.90;99.90;;;;;;4950607;28;20476;-73
2023/12/27 07:27:31;;;;;;;18.25;9.82;;;6.90;99.90;;;;;;4951398;28;20063;-73
2023/12/27 07:29:57;;;;;;;16.08;9.57;;;7.00;99.90;;;;;;4951116;28;20580;-74
2023/12/27 07:32:23;;;;;;;16.35;9.15;;;7.00;99.90;;;;;;4951182;28;20027;-74
2023/12/27 07:34:48;;;;;;;19.00;9.48;;;7.00;99.90;;;;;;4951052;28;20106;-74
2023/12/27 07:37:14;;;;;;;14.10;8.93;;;7.00;99.90;;;;;;4951128;29;20094;-74
2023/12/27 07:39:40;;;;;;;16.17;9.77;;;7.00;99.90;;;;;;4950469;28;20023;-74
2023/12/27 07:42:06;;;;;;;16.17;9.48;;;7.00;99.90;;;;;;4950861;28;20016;-74
2023/12/27 07:44:31;;;;;;;15.35;10.02;;;7.10;99.90;;;;;;5016866;28;20476;-73
2023/12/27 07:46:57;;;;;;;15.02;9.60;;;7.00;99.90;;;;;;4946630;28;20557;-73
2023/12/27 07:49:24;;;;;;;14.45;9.00;;;7.10;99.90;;;;;;4946613;28;20031;-73
2023/12/27 07:51:50;;;;;;;14.88;9.48;;;7.10;99.90;;;;;;4951375;28;20034;-74
2023/12/27 07:54:15;;;;;;;13.73;9.27;;;7.10;99.90;;;;;;4950266;28;20035;-73
2023/12/27 07:56:41;;;;;;;13.30;9.07;;;7.10;99.90;;;;;;4950840;28;20109;-73
2023/12/27 07:59:07;;;;;;;14.10;9.48;;;7.10;99.90;;;;;;4950403;29;20084;-73
2023/12/27 08:01:33;;;;;;;16.02;9.80;;;7.20;99.90;;;;;;4950746;28;20073;-73
2023/12/27 08:03:59;;;;;;;16.95;9.63;;;7.20;99.90;;;;;;4950795;28;20395;-73
2023/12/27 08:06:26;;;;;;;13.85;9.00;;;7.20;99.90;;;;;;4950051;28;20081;-73
2023/12/27 08:08:52;;;;;;;14.32;9.30;;;7.20;99.90;;;;;;4949815;28;20037;-73
2023/12/27 08:11:18;;;;;;;13.43;9.48;;;7.20;99.90;;;;;;4949530;28;20028;-73
2023/12/27 08:13:44;;;;;;;15.35;10.05;;;7.20;99.90;;;;;;4950229;28;20034;-73
2023/12/27 08:16:09;;;;;;;14.70;9.98;;;7.20;99.90;;;;;;4949711;28;20555;-73
2023/12/27 08:18:35;;;;;;;13.98;9.43;;;7.30;99.90;;;;;;4950027;28;20031;-73
2023/12/27 08:21:01;;;;;;;15.73;11.07;;;7.30;99.90;;;;;;4950565;28;20554;-73
2023/12/27 08:23:26;;;;;;;17.75;10.65;;;7.30;99.90;;;;;;4950315;29;20152;-73
2023/12/27 08:25:52;;;;;;;18.00;10.40;;;7.40;99.90;;;;;;5032262;28;20031;-74
2023/12/27 08:28:17;;;;;;;17.52;11.57;;;7.40;99.90;;;;;;4999491;28;20031;-74
2023/12/27 08:30:44;;;;;;;21.08;12.43;;;7.40;99.90;;;;;;4948901;28;20474;-74
2023/12/27 08:33:10;;;;;;;17.75;12.30;;;7.50;99.90;;;;;;4950598;28;20051;-74
2023/12/27 08:35:36;;;;;;;19.88;12.93;;;7.50;99.90;;;;;;4938107;29;20124;-74
2023/12/27 08:38:05;;;;;;;22.63;14.52;;;7.50;99.90;;;;;;4950362;28;20070;-73
2023/12/27 08:40:30;;;;;;;24.85;15.18;;;7.60;99.90;;;;;;4949824;28;20027;-73
2023/12/27 08:42:57;;;;;;;23.40;15.15;;;7.60;99.90;;;;;;4949841;28;20030;-74
2023/12/27 08:45:23;;;;;;;28.33;17.20;;;7.60;99.90;;;;;;4949116;28;20059;-73
2023/12/27 08:47:49;;;;;;;30.55;17.73;;;7.70;99.90;;;;;;4946761;28;20052;-74
2023/12/27 08:50:15;;;;;;;29.25;18.17;;;7.70;99.90;;;;;;4943974;28;20023;-74
2023/12/27 08:52:40;;;;;;;30.50;19.45;;;7.80;99.90;;;;;;4950258;28;20058;-74
2023/12/27 08:55:08;;;;;;;32.65;20.15;;;7.80;99.90;;;;;;4948423;28;20066;-74
2023/12/27 08:57:34;;;;;;;34.83;21.05;;;7.80;99.90;;;;;;4950163;29;20027;-74
2023/12/27 09:00:00;;;;;;;38.22;22.30;;;7.90;99.90;;;;;;4948292;29;20023;-74
2023/12/27 09:02:26;;;;;;;39.05;22.42;;;7.90;99.90;;;;;;4942877;29;20074;-74
2023/12/27 09:04:52;;;;;;;43.85;23.40;;;8.00;99.90;;;;;;4946361;28;20019;-74
2023/12/27 09:07:18;;;;;;;35.35;22.25;;;8.00;99.90;;;;;;4949226;29;20387;-74
2023/12/27 09:09:43;;;;;;;38.67;23.25;;;8.10;99.90;;;;;;4945939;29;20051;-74
2023/12/27 09:12:09;;;;;;;40.67;23.08;;;8.20;99.90;;;;;;4946503;29;20519;-74
2023/12/27 09:14:38;;;;;;;40.08;24.27;;;8.20;99.90;;;;;;4949043;29;20026;-73
2023/12/27 09:17:04;;;;;;;41.83;23.83;;;8.20;99.90;;;;;;4947851;28;20112;-74
2023/12/27 09:19:29;;;;;;;42.17;24.05;;;8.30;99.90;;;;;;4948586;29;20019;-74
2023/12/27 09:21:55;;;;;;;39.50;24.35;;;8.30;99.90;;;;;;4944229;29;20035;-74
2023/12/27 09:24:21;;;;;;;40.17;24.05;;;8.40;99.90;;;;;;4945879;28;20076;-74
2023/12/27 09:26:49;;;;;;;39.95;23.73;;;8.40;99.90;;;;;;4946127;29;20077;-74
2023/12/27 09:29:15;;;;;;;39.25;24.23;;;8.40;99.90;;;;;;4948411;29;20070;-74
2023/12/27 09:31:41;;;;;;;41.13;23.42;;;8.50;99.90;;;;;;4947319;29;20019;-74
2023/12/27 09:34:07;;;;;;;40.92;22.83;;;8.50;99.90;;;;;;5014776;28;20031;-74
2023/12/27 09:36:33;;;;;;;38.45;21.98;;;8.60;99.90;;;;;;4946888;29;20042;-75
2023/12/27 09:38:59;;;;;;;35.97;20.95;;;8.70;99.90;;;;;;4949101;28;20020;-74
2023/12/27 09:41:24;;;;;;;35.28;21.48;;;8.70;99.90;;;;;;4948824;28;20027;-74
2023/12/27 09:43:53;;;;;;;39.22;21.55;;;8.80;99.90;;;;;;4949695;28;20029;-74
2023/12/27 09:46:20;;;;;;;41.28;22.23;;;8.80;99.90;;;;;;4948812;28;20045;-75
2023/12/27 09:48:47;;;;;;;40.60;20.67;;;8.90;99.90;;;;;;4946877;28;20105;-74
2023/12/27 09:51:22;;;;;;;34.10;20.38;;;8.90;99.90;;;;;;4948801;28;20061;-75
2023/12/27 09:53:51;;;;;;;34.33;19.40;;;8.90;99.90;;;;;;4944769;29;20361;-74
2023/12/27 09:56:18;;;;;;;33.72;20.90;;;8.90;99.90;;;;;;4947190;29;20071;-75
2023/12/27 09:58:47;;;;;;;34.55;20.15;;;8.90;99.90;;;;;;4943383;28;20038;-75
2023/12/27 10:01:13;;;;;;;35.28;20.00;;;9.00;99.90;;;;;;4944013;29;20015;-74
2023/12/27 10:03:43;;;;;;;34.85;20.23;;;9.00;99.90;;;;;;5008586;28;20027;-75
2023/12/27 10:06:40;;;;;;;34.35;19.92;;;9.00;99.90;;;;;;4947717;28;20401;-75
2023/12/27 10:09:05;;;;;;;36.05;18.67;;;9.00;99.90;;;;;;4940625;29;20042;-73
2023/12/27 10:11:31;;;;;;;36.88;19.98;;;9.00;99.90;;;;;;4945726;29;20035;-73
2023/12/27 10:13:57;;;;;;;36.47;19.75;;;9.00;99.90;;;;;;4945536;29;20037;-74
2023/12/27 10:16:23;;;;;;;32.42;19.83;;;9.00;99.90;;;;;;4942554;28;20463;-74
2023/12/27 10:18:48;;;;;;;38.08;20.63;;;9.00;99.90;;;;;;4940566;28;20024;-74
2023/12/27 10:21:15;;;;;;;31.58;19.08;;;9.10;99.90;;;;;;4945861;28;20063;-74
2023/12/27 10:23:41;;;;;;;34.08;19.48;;;9.00;99.90;;;;;;4946454;28;20106;-74
2023/12/27 10:26:07;;;;;;;36.20;19.20;;;9.10;99.90;;;;;;4943000;28;20535;-74
2023/12/27 10:28:33;;;;;;;39.75;19.30;;;9.10;99.90;;;;;;5015693;28;20034;-74
2023/12/27 10:30:59;;;;;;;31.27;18.30;;;9.10;99.90;;;;;;4946888;29;20066;-74
2023/12/27 10:33:24;;;;;;;34.33;18.30;;;9.10;99.90;;;;;;4948121;28;20058;-75
2023/12/27 10:35:50;;;;;;;35.45;18.50;;;9.10;99.90;;;;;;4946824;28;20031;-74
2023/12/27 10:38:16;;;;;;;33.47;16.42;;;9.10;99.90;;;;;;4938750;28;20022;-74
2023/12/27 10:40:42;;;;;;;32.45;17.27;;;9.10;99.90;;;;;;4944308;28;20023;-74
2023/12/27 10:43:08;;;;;;;34.42;17.00;;;9.20;99.90;;;;;;4938145;29;20031;-74
2023/12/27 10:45:36;;;;;;;25.67;16.27;;;9.20;99.90;;;;;;4944234;28;20028;-76
2023/12/27 10:48:06;;;;;;;26.35;15.32;;;9.20;99.90;;;;;;4947452;28;20064;-74
2023/12/27 10:50:33;;;;;;;30.35;15.93;;;9.20;99.90;;;;;;4947264;28;20376;-74
2023/12/27 10:53:04;;;;;;;32.75;15.75;;;9.20;99.90;;;;;;4940896;28;20118;-74
2023/12/27 10:55:32;;;;;;;25.65;15.10;;;9.20;99.90;;;;;;4938537;28;20504;-74
2023/12/27 10:58:00;;;;;;;27.63;14.45;;;9.30;99.90;;;;;;4943782;28;20020;-74
2023/12/27 11:00:26;;;;;;;26.08;14.48;;;9.30;99.90;;;;;;4944430;28;20034;-75
2023/12/27 11:02:52;;;;;;;26.98;14.90;;;9.30;99.90;;;;;;4951343;29;20027;-74
2023/12/27 11:05:20;;;;;;;27.00;14.60;;;9.30;99.90;;;;;;4951218;28;20377;-74
2023/12/27 11:07:46;;;;;;;22.20;13.90;;;9.30;99.90;;;;;;4950848;28;20027;-74
2023/12/27 11:10:16;;;;;;;24.20;13.70;;;9.30;99.90;;;;;;4951199;28;20729;-74
2023/12/27 11:12:49;;;;;;;24.40;13.30;;;9.40;99.90;;;;;;4950921;28;20082;-75
2023/12/27 11:15:15;;;;;;;22.65;12.68;;;9.40;99.90;;;;;;4948678;28;20056;-74
2023/12/27 11:17:41;;;;;;;22.75;12.32;;;9.40;99.90;;;;;;4950903;28;20395;-74
2023/12/27 11:20:10;;;;;;;19.27;11.85;;;9.40;99.90;;;;;;4950588;28;20038;-75
2023/12/27 11:22:37;;;;;;;22.63;11.50;;;9.40;99.90;;;;;;4950854;28;20586;-75
2023/12/27 11:25:03;;;;;;;16.75;10.90;;;9.40;99.90;;;;;;4950538;28;20453;-75
2023/12/27 11:27:29;;;;;;;22.35;10.30;;;9.50;99.90;;;;;;4950651;28;20040;-74
2023/12/27 11:29:55;;;;;;;19.73;9.73;;;9.50;99.90;;;;;;4950904;29;20046;-74
2023/12/27 11:32:21;;;;;;;20.08;9.70;;;9.50;99.90;;;;;;4950681;28;20020;-75
2023/12/27 11:34:47;;;;;;;19.48;9.27;;;9.50;99.90;;;;;;4951065;28;20383;-75
2023/12/27 11:37:16;;;;;;;19.90;9.10;;;9.50;99.90;;;;;;4950779;28;20030;-72
2023/12/27 11:39:48;;;;;;;23.85;9.45;;;9.60;99.90;;;;;;4950157;28;20030;-72
2023/12/27 11:42:16;;;;;;;18.48;9.65;;;9.60;99.90;;;;;;4950021;29;20027;-72
2023/12/27 11:44:56;;;;;;;16.77;9.20;;;9.60;99.90;;;;;;4947032;28;20032;-72
2023/12/27 11:47:22;;;;;;;16.75;9.50;;;9.60;99.90;;;;;;4948104;29;20031;-73
2023/12/27 11:50:10;;;;;;;14.80;9.05;;;9.60;99.90;;;;;;4950824;28;20035;-73
2023/12/27 11:52:47;;;;;;;24.88;9.50;;;9.70;99.90;;;;;;4948418;28;20019;-72
2023/12/27 11:55:18;;;;;;;16.25;8.80;;;9.70;99.90;;;;;;4943951;29;20038;-72
2023/12/27 11:57:43;;;;;;;21.73;9.38;;;9.70;99.90;;;;;;4947952;28;20035;-72
2023/12/27 12:00:14;;;;;;;20.95;8.88;;;9.70;99.90;;;;;;4945905;28;20492;-73
2023/12/27 12:02:48;;;;;;;24.92;9.57;;;9.70;99.90;;;;;;4950418;29;20500;-74
2023/12/27 12:05:48;;;;;;;19.65;9.02;;;9.70;99.90;;;;;;4946392;28;20062;-73
2023/12/27 12:08:25;;;;;;;20.20;9.15;;;9.80;99.90;;;;;;4949224;28;20036;-75
2023/12/27 12:11:07;;;;;;;14.05;8.65;;;9.80;99.90;;;;;;4950572;28;20034;-75
2023/12/27 12:13:33;;;;;;;17.50;8.60;;;9.80;99.90;;;;;;4947714;28;20386;-75
2023/12/27 12:16:00;;;;;;;21.35;9.02;;;9.80;99.90;;;;;;4949699;28;20039;-75
2023/12/27 12:18:27;;;;;;;18.75;9.13;;;9.80;99.90;;;;;;4950157;28;20031;-75
2023/12/27 12:20:54;;;;;;;18.10;8.63;;;9.80;99.90;;;;;;5032605;28;20419;-72
2023/12/27 12:23:19;;;;;;;16.33;8.90;;;9.80;99.90;;;;;;4949764;28;20092;-72
2023/12/27 12:25:45;;;;;;;15.98;8.45;;;9.90;99.90;;;;;;4949117;28;20035;-73
2023/12/27 12:28:11;;;;;;;20.92;8.68;;;9.90;99.90;;;;;;4946396;29;20028;-73
2023/12/27 12:30:37;;;;;;;19.65;8.75;;;9.90;99.90;;;;;;4947737;28;20020;-72
2023/12/27 12:33:06;;;;;;;16.25;9.00;;;9.90;99.90;;;;;;4951189;28;20046;-73